sensor_id;sensor_type;location;lat;lon;timestamp;pressure;altitude;pressure_sealevel;temperature;humidity
43281;BME280;62175;49.416;8.690;2023-11-21T00:01:51;99882.88;;;13.35;61.59
43281;BME280;62175;49.416;8.690;2023-11-21T00:04:18;99877.56;;;13.48;61.75
43281;BME280;62175;49.416;8.690;2023-11-21T00:06:45;99879.81;;;13.52;61.72
43281;BME280;62175;49.416;8.690;2023-11-21T00:09:13;99881.31;;;13.85;62.25
43281;BME280;62175;49.416;8.690;2023-11-21T00:11:40;99879.91;;;13.64;63.12
43281;BME280;62175;49.416;8.690;2023-11-21T00:14:07;99880.23;;;13.63;61.64
43281;BME280;62175;49.416;8.690;2023-11-21T00:16:34;99878.49;;;13.51;62.14
43281;BME280;62175;49.416;8.690;2023-11-21T00:19:01;99880.41;;;13.45;63.20
43281;BME280;62175;49.416;8.690;2023-11-21T00:21:28;99882.93;;;13.54;62.33
43281;BME280;62175;49.416;8.690;2023-11-21T00:23:55;99887.02;;;13.63;63.28
43281;BME280;62175;49.416;8.690;2023-11-21T00:26:22;99883.61;;;13.69;62.74
43281;BME280;62175;49.416;8.690;2023-11-21T00:28:50;99883.58;;;13.68;63.10
43281;BME280;62175;49.416;8.690;2023-11-21T00:31:17;99879.57;;;13.23;61.34
43281;BME280;62175;49.416;8.690;2023-11-21T00:33:44;99880.04;;;13.56;64.01
43281;BME280;62175;49.416;8.690;2023-11-21T00:36:11;99877.79;;;13.64;62.27
43281;BME280;62175;49.416;8.690;2023-11-21T00:38:38;99877.92;;;13.61;62.08
43281;BME280;62175;49.416;8.690;2023-11-21T00:41:05;99878.46;;;13.60;61.71
43281;BME280;62175;49.416;8.690;2023-11-21T00:43:32;99874.47;;;13.01;61.50
43281;BME280;62175;49.416;8.690;2023-11-21T00:46:03;99871.28;;;13.46;62.64
43281;BME280;62175;49.416;8.690;2023-11-21T00:48:30;99874.39;;;13.62;61.70
43281;BME280;62175;49.416;8.690;2023-11-21T00:50:57;99875.82;;;13.64;61.96
43281;BME280;62175;49.416;8.690;2023-11-21T00:53:24;99873.16;;;13.58;61.76
43281;BME280;62175;49.416;8.690;2023-11-21T00:55:51;99870.85;;;13.67;61.71
43281;BME280;62175;49.416;8.690;2023-11-21T00:58:18;99870.15;;;13.50;61.84
43281;BME280;62175;49.416;8.690;2023-11-21T01:00:46;99875.29;;;13.81;63.11
43281;BME280;62175;49.416;8.690;2023-11-21T01:03:13;99872.58;;;13.88;62.36
43281;BME280;62175;49.416;8.690;2023-11-21T01:05:40;99872.52;;;13.55;61.31
43281;BME280;62175;49.416;8.690;2023-11-21T01:08:07;99869.99;;;13.36;61.45
43281;BME280;62175;49.416;8.690;2023-11-21T01:10:35;99873.60;;;13.55;61.59
43281;BME280;62175;49.416;8.690;2023-11-21T01:13:02;99873.91;;;13.60;62.27
43281;BME280;62175;49.416;8.690;2023-11-21T01:15:29;99878.64;;;13.55;61.74
43281;BME280;62175;49.416;8.690;2023-11-21T01:17:56;99880.91;;;13.62;61.45
43281;BME280;62175;49.416;8.690;2023-11-21T01:20:23;99882.11;;;13.66;62.42
43281;BME280;62175;49.416;8.690;2023-11-21T01:22:50;99879.87;;;13.76;61.18
43281;BME280;62175;49.416;8.690;2023-11-21T01:25:18;99880.34;;;13.57;61.62
43281;BME280;62175;49.416;8.690;2023-11-21T01:27:45;99879.04;;;13.53;61.41
43281;BME280;62175;49.416;8.690;2023-11-21T01:30:13;99879.95;;;13.75;61.29
43281;BME280;62175;49.416;8.690;2023-11-21T01:32:39;99876.51;;;13.52;62.37
43281;BME280;62175;49.416;8.690;2023-11-21T01:35:07;99881.16;;;13.59;61.53
43281;BME280;62175;49.416;8.690;2023-11-21T01:37:34;99883.83;;;13.75;62.20
43281;BME280;62175;49.416;8.690;2023-11-21T01:40:02;99880.15;;;13.76;61.40
43281;BME280;62175;49.416;8.690;2023-11-21T01:42:29;99881.68;;;13.83;61.79
43281;BME280;62175;49.416;8.690;2023-11-21T01:44:56;99884.82;;;13.44;61.61
43281;BME280;62175;49.416;8.690;2023-11-21T01:47:23;99885.97;;;13.51;61.73
43281;BME280;62175;49.416;8.690;2023-11-21T01:49:50;99883.42;;;13.58;62.15
43281;BME280;62175;49.416;8.690;2023-11-21T01:52:18;99882.46;;;13.71;62.07
43281;BME280;62175;49.416;8.690;2023-11-21T01:54:45;99880.38;;;13.79;61.28
43281;BME280;62175;49.416;8.690;2023-11-21T01:57:12;99877.01;;;13.86;61.93
43281;BME280;62175;49.416;8.690;2023-11-21T01:59:41;99881.31;;;13.72;62.00
43281;BME280;62175;49.416;8.690;2023-11-21T02:02:09;99877.96;;;13.40;61.46
43281;BME280;62175;49.416;8.690;2023-11-21T02:04:36;99875.48;;;13.51;62.34
43281;BME280;62175;49.416;8.690;2023-11-21T02:07:04;99880.34;;;13.63;61.53
43281;BME280;62175;49.416;8.690;2023-11-21T02:09:32;99880.52;;;13.69;61.64
43281;BME280;62175;49.416;8.690;2023-11-21T02:11:59;99884.17;;;13.73;61.50
43281;BME280;62175;49.416;8.690;2023-11-21T02:14:27;99877.64;;;13.71;61.85
43281;BME280;62175;49.416;8.690;2023-11-21T02:16:55;99875.42;;;13.60;61.80
43281;BME280;62175;49.416;8.690;2023-11-21T02:19:23;99873.91;;;13.57;61.97
43281;BME280;62175;49.416;8.690;2023-11-21T02:21:50;99873.37;;;13.59;62.30
43281;BME280;62175;49.416;8.690;2023-11-21T02:24:19;99875.35;;;13.65;62.29
43281;BME280;62175;49.416;8.690;2023-11-21T02:26:45;99877.15;;;13.63;61.81
43281;BME280;62175;49.416;8.690;2023-11-21T02:29:13;99878.87;;;13.44;62.51
43281;BME280;62175;49.416;8.690;2023-11-21T02:31:40;99879.14;;;13.70;62.58
43281;BME280;62175;49.416;8.690;2023-11-21T02:34:06;99879.58;;;13.78;61.31
43281;BME280;62175;49.416;8.690;2023-11-21T02:36:34;99879.34;;;13.73;61.97
43281;BME280;62175;49.416;8.690;2023-11-21T02:39:01;99878.98;;;13.43;62.35
43281;BME280;62175;49.416;8.690;2023-11-21T02:41:29;99875.56;;;13.46;62.53
43281;BME280;62175;49.416;8.690;2023-11-21T02:43:56;99879.68;;;13.65;62.31
43281;BME280;62175;49.416;8.690;2023-11-21T02:46:23;99880.27;;;13.62;62.11
43281;BME280;62175;49.416;8.690;2023-11-21T02:48:50;99872.73;;;13.80;62.77
43281;BME280;62175;49.416;8.690;2023-11-21T02:51:17;99872.92;;;13.85;62.39
43281;BME280;62175;49.416;8.690;2023-11-21T02:53:45;99876.46;;;13.61;61.75
43281;BME280;62175;49.416;8.690;2023-11-21T02:56:12;99875.81;;;13.44;61.19
43281;BME280;62175;49.416;8.690;2023-11-21T02:58:42;99869.93;;;13.76;61.25
43281;BME280;62175;49.416;8.690;2023-11-21T03:01:09;99871.32;;;13.80;62.34
43281;BME280;62175;49.416;8.690;2023-11-21T03:03:36;99869.97;;;13.87;61.46
43281;BME280;62175;49.416;8.690;2023-11-21T03:06:04;99874.94;;;13.70;62.03
43281;BME280;62175;49.416;8.690;2023-11-21T03:08:32;99868.83;;;13.44;62.59
43281;BME280;62175;49.416;8.690;2023-11-21T03:11:00;99863.70;;;13.37;62.25
43281;BME280;62175;49.416;8.690;2023-11-21T03:13:27;99866.48;;;13.36;62.07
43281;BME280;62175;49.416;8.690;2023-11-21T03:15:55;99866.23;;;13.54;62.07
43281;BME280;62175;49.416;8.690;2023-11-21T03:18:22;99868.33;;;13.58;62.11
43281;BME280;62175;49.416;8.690;2023-11-21T03:20:49;99867.23;;;13.72;62.77
43281;BME280;62175;49.416;8.690;2023-11-21T03:23:16;99870.96;;;13.79;63.69
43281;BME280;62175;49.416;8.690;2023-11-21T03:25:43;99873.15;;;13.54;63.27
43281;BME280;62175;49.416;8.690;2023-11-21T03:28:10;99876.27;;;13.38;62.15
43281;BME280;62175;49.416;8.690;2023-11-21T03:30:37;99876.04;;;13.63;62.03
43281;BME280;62175;49.416;8.690;2023-11-21T03:33:04;99873.25;;;13.40;62.08
43281;BME280;62175;49.416;8.690;2023-11-21T03:35:32;99877.87;;;13.33;62.73
43281;BME280;62175;49.416;8.690;2023-11-21T03:37:59;99876.36;;;13.45;63.32
43281;BME280;62175;49.416;8.690;2023-11-21T03:40:26;99878.82;;;13.44;62.77
43281;BME280;62175;49.416;8.690;2023-11-21T03:42:53;99881.84;;;13.53;62.74
43281;BME280;62175;49.416;8.690;2023-11-21T03:45:20;99881.59;;;13.51;62.09
43281;BME280;62175;49.416;8.690;2023-11-21T03:47:48;99879.32;;;13.55;62.10
43281;BME280;62175;49.416;8.690;2023-11-21T03:50:15;99881.79;;;13.32;62.61
43281;BME280;62175;49.416;8.690;2023-11-21T03:52:42;99882.18;;;13.73;62.78
43281;BME280;62175;49.416;8.690;2023-11-21T03:55:10;99881.75;;;13.60;62.46
43281;BME280;62175;49.416;8.690;2023-11-21T03:57:37;99881.48;;;13.64;62.41
43281;BME280;62175;49.416;8.690;2023-11-21T04:00:06;99883.33;;;13.67;62.57
43281;BME280;62175;49.416;8.690;2023-11-21T04:02:33;99883.14;;;13.56;62.21
43281;BME280;62175;49.416;8.690;2023-11-21T04:05:01;99884.57;;;13.77;62.79
43281;BME280;62175;49.416;8.690;2023-11-21T04:07:28;99887.81;;;13.47;62.87
43281;BME280;62175;49.416;8.690;2023-11-21T04:09:55;99889.28;;;13.81;62.96
43281;BME280;62175;49.416;8.690;2023-11-21T04:12:22;99885.39;;;13.68;62.40
43281;BME280;62175;49.416;8.690;2023-11-21T04:14:49;99886.75;;;13.47;63.05
43281;BME280;62175;49.416;8.690;2023-11-21T04:17:18;99889.76;;;13.68;63.15
43281;BME280;62175;49.416;8.690;2023-11-21T04:19:45;99892.73;;;13.82;61.83
43281;BME280;62175;49.416;8.690;2023-11-21T04:22:12;99894.07;;;13.68;62.68
43281;BME280;62175;49.416;8.690;2023-11-21T04:24:39;99897.08;;;13.68;63.16
43281;BME280;62175;49.416;8.690;2023-11-21T04:27:06;99905.35;;;13.70;62.56
43281;BME280;62175;49.416;8.690;2023-11-21T04:29:34;99907.59;;;13.60;63.49
43281;BME280;62175;49.416;8.690;2023-11-21T04:32:01;99905.28;;;13.58;62.49
43281;BME280;62175;49.416;8.690;2023-11-21T04:34:28;99903.75;;;13.41;61.98
43281;BME280;62175;49.416;8.690;2023-11-21T04:36:55;99904.28;;;13.61;62.35
43281;BME280;62175;49.416;8.690;2023-11-21T04:39:22;99906.33;;;13.71;62.07
43281;BME280;62175;49.416;8.690;2023-11-21T04:41:50;99908.26;;;13.69;62.61
43281;BME280;62175;49.416;8.690;2023-11-21T04:44:16;99910.62;;;14.14;62.15
43281;BME280;62175;49.416;8.690;2023-11-21T04:46:43;99912.64;;;13.50;62.14
43281;BME280;62175;49.416;8.690;2023-11-21T04:49:11;99910.87;;;13.62;62.23
43281;BME280;62175;49.416;8.690;2023-11-21T04:51:38;99909.55;;;13.30;62.28
43281;BME280;62175;49.416;8.690;2023-11-21T04:54:05;99914.69;;;13.64;63.44
43281;BME280;62175;49.416;8.690;2023-11-21T04:56:32;99916.97;;;13.51;62.43
43281;BME280;62175;49.416;8.690;2023-11-21T04:58:59;99918.99;;;13.72;62.72
43281;BME280;62175;49.416;8.690;2023-11-21T05:01:26;99923.13;;;13.59;62.98
43281;BME280;62175;49.416;8.690;2023-11-21T05:03:54;99929.43;;;13.53;62.92
43281;BME280;62175;49.416;8.690;2023-11-21T05:06:21;99931.22;;;13.22;62.42
43281;BME280;62175;49.416;8.690;2023-11-21T05:08:49;99932.68;;;13.52;62.61
43281;BME280;62175;49.416;8.690;2023-11-21T05:11:24;99933.89;;;13.62;62.36
43281;BME280;62175;49.416;8.690;2023-11-21T05:13:51;99931.57;;;13.79;62.72
43281;BME280;62175;49.416;8.690;2023-11-21T05:16:19;99931.60;;;14.00;63.33
43281;BME280;62175;49.416;8.690;2023-11-21T05:18:46;99933.50;;;13.81;63.09
43281;BME280;62175;49.416;8.690;2023-11-21T05:21:13;99936.22;;;13.78;63.47
43281;BME280;62175;49.416;8.690;2023-11-21T05:23:40;99939.24;;;13.56;63.96
43281;BME280;62175;49.416;8.690;2023-11-21T05:26:08;99943.61;;;13.43;62.65
43281;BME280;62175;49.416;8.690;2023-11-21T05:28:35;99944.52;;;13.83;62.98
43281;BME280;62175;49.416;8.690;2023-11-21T05:31:02;99949.08;;;13.74;62.54
43281;BME280;62175;49.416;8.690;2023-11-21T05:33:29;99951.35;;;13.68;63.68
43281;BME280;62175;49.416;8.690;2023-11-21T05:35:56;99959.73;;;13.66;62.62
43281;BME280;62175;49.416;8.690;2023-11-21T05:38:23;99962.16;;;13.81;63.34
43281;BME280;62175;49.416;8.690;2023-11-21T05:40:51;99963.20;;;13.50;62.29
43281;BME280;62175;49.416;8.690;2023-11-21T05:43:18;99967.50;;;13.66;63.54
43281;BME280;62175;49.416;8.690;2023-11-21T05:45:45;99969.30;;;13.74;63.66
43281;BME280;62175;49.416;8.690;2023-11-21T05:48:12;99970.81;;;13.49;63.19
43281;BME280;62175;49.416;8.690;2023-11-21T05:50:39;99969.80;;;13.43;63.11
43281;BME280;62175;49.416;8.690;2023-11-21T05:53:06;99969.88;;;13.75;63.57
43281;BME280;62175;49.416;8.690;2023-11-21T05:55:33;99974.57;;;13.83;63.32
43281;BME280;62175;49.416;8.690;2023-11-21T05:58:01;99976.87;;;13.80;63.20
43281;BME280;62175;49.416;8.690;2023-11-21T06:00:28;99982.54;;;13.50;63.47
43281;BME280;62175;49.416;8.690;2023-11-21T06:02:55;99983.45;;;13.62;62.64
43281;BME280;62175;49.416;8.690;2023-11-21T06:05:23;99986.28;;;13.58;62.48
43281;BME280;62175;49.416;8.690;2023-11-21T06:07:51;99988.31;;;13.75;62.28
43281;BME280;62175;49.416;8.690;2023-11-21T06:10:20;99991.17;;;13.68;63.27
43281;BME280;62175;49.416;8.690;2023-11-21T06:12:47;99996.60;;;13.37;63.82
43281;BME280;62175;49.416;8.690;2023-11-21T06:15:14;99996.43;;;13.75;64.18
43281;BME280;62175;49.416;8.690;2023-11-21T06:17:42;99999.81;;;13.62;63.37
43281;BME280;62175;49.416;8.690;2023-11-21T06:20:10;100001.06;;;13.75;63.24
43281;BME280;62175;49.416;8.690;2023-11-21T06:22:40;100004.21;;;13.64;64.21
43281;BME280;62175;49.416;8.690;2023-11-21T06:25:08;100003.75;;;13.72;64.73
43281;BME280;62175;49.416;8.690;2023-11-21T06:27:38;100010.33;;;13.70;63.69
43281;BME280;62175;49.416;8.690;2023-11-21T06:30:06;100012.40;;;13.62;64.67
43281;BME280;62175;49.416;8.690;2023-11-21T06:32:34;100018.13;;;13.54;64.51
43281;BME280;62175;49.416;8.690;2023-11-21T06:35:00;100020.02;;;13.72;64.39
43281;BME280;62175;49.416;8.690;2023-11-21T06:37:29;100024.07;;;13.65;64.65
43281;BME280;62175;49.416;8.690;2023-11-21T06:39:57;100028.48;;;13.40;64.53
43281;BME280;62175;49.416;8.690;2023-11-21T06:42:24;100026.49;;;13.41;64.23
43281;BME280;62175;49.416;8.690;2023-11-21T06:44:52;100030.46;;;13.66;64.84
43281;BME280;62175;49.416;8.690;2023-11-21T06:47:19;100031.51;;;13.54;65.01
43281;BME280;62175;49.416;8.690;2023-11-21T06:49:46;100034.58;;;13.36;63.77
43281;BME280;62175;49.416;8.690;2023-11-21T06:52:13;100036.50;;;13.60;64.95
43281;BME280;62175;49.416;8.690;2023-11-21T06:54:40;100045.27;;;13.61;65.57
43281;BME280;62175;49.416;8.690;2023-11-21T06:57:08;100048.11;;;13.55;64.23
43281;BME280;62175;49.416;8.690;2023-11-21T06:59:35;100050.10;;;13.64;64.22
43281;BME280;62175;49.416;8.690;2023-11-21T07:02:02;100050.97;;;13.60;64.91
43281;BME280;62175;49.416;8.690;2023-11-21T07:04:29;100051.29;;;13.65;64.51
43281;BME280;62175;49.416;8.690;2023-11-21T07:06:56;100050.07;;;13.69;64.54
43281;BME280;62175;49.416;8.690;2023-11-21T07:09:23;100053.86;;;13.65;64.85
43281;BME280;62175;49.416;8.690;2023-11-21T07:11:51;100059.83;;;13.58;64.66
43281;BME280;62175;49.416;8.690;2023-11-21T07:14:18;100062.11;;;13.76;65.20
43281;BME280;62175;49.416;8.690;2023-11-21T07:16:45;100063.66;;;13.34;64.86
43281;BME280;62175;49.416;8.690;2023-11-21T07:19:12;100066.75;;;13.35;64.94
43281;BME280;62175;49.416;8.690;2023-11-21T07:21:40;100070.41;;;13.56;64.61
43281;BME280;62175;49.416;8.690;2023-11-21T07:24:08;100074.13;;;13.75;63.64
43281;BME280;62175;49.416;8.690;2023-11-21T07:26:35;100079.09;;;13.14;64.29
43281;BME280;62175;49.416;8.690;2023-11-21T07:29:03;100080.31;;;13.58;64.68
43281;BME280;62175;49.416;8.690;2023-11-21T07:31:30;100084.81;;;13.85;65.19
43281;BME280;62175;49.416;8.690;2023-11-21T07:33:58;100090.14;;;13.74;64.54
43281;BME280;62175;49.416;8.690;2023-11-21T07:36:26;100093.34;;;13.60;64.13
43281;BME280;62175;49.416;8.690;2023-11-21T07:38:54;100095.88;;;13.60;63.65
43281;BME280;62175;49.416;8.690;2023-11-21T07:41:21;100096.54;;;13.57;63.46
43281;BME280;62175;49.416;8.690;2023-11-21T07:43:48;100098.78;;;13.57;63.87
43281;BME280;62175;49.416;8.690;2023-11-21T07:46:15;100098.06;;;13.63;64.25
43281;BME280;62175;49.416;8.690;2023-11-21T07:48:42;100105.34;;;13.23;63.61
43281;BME280;62175;49.416;8.690;2023-11-21T07:51:10;100106.13;;;13.34;64.50
43281;BME280;62175;49.416;8.690;2023-11-21T07:53:37;100107.39;;;13.38;64.71
43281;BME280;62175;49.416;8.690;2023-11-21T07:56:05;100113.05;;;13.26;64.77
43281;BME280;62175;49.416;8.690;2023-11-21T07:58:33;100118.07;;;13.56;65.44
43281;BME280;62175;49.416;8.690;2023-11-21T08:01:01;100118.58;;;13.56;63.82
43281;BME280;62175;49.416;8.690;2023-11-21T08:03:27;100121.15;;;13.57;65.47
43281;BME280;62175;49.416;8.690;2023-11-21T08:05:55;100119.47;;;13.55;64.78
43281;BME280;62175;49.416;8.690;2023-11-21T08:08:22;100120.10;;;13.40;64.54
43281;BME280;62175;49.416;8.690;2023-11-21T08:10:49;100116.35;;;13.36;64.13
43281;BME280;62175;49.416;8.690;2023-11-21T08:13:16;100115.03;;;13.47;64.27
43281;BME280;62175;49.416;8.690;2023-11-21T08:15:43;100114.57;;;13.51;65.19
43281;BME280;62175;49.416;8.690;2023-11-21T08:18:10;100113.63;;;13.60;65.91
43281;BME280;62175;49.416;8.690;2023-11-21T08:20:37;100119.97;;;13.61;64.57
43281;BME280;62175;49.416;8.690;2023-11-21T08:23:05;100120.47;;;13.53;64.28
43281;BME280;62175;49.416;8.690;2023-11-21T08:25:31;100123.82;;;13.59;64.19
43281;BME280;62175;49.416;8.690;2023-11-21T08:27:59;100124.38;;;13.62;64.55
43281;BME280;62175;49.416;8.690;2023-11-21T08:30:25;100128.39;;;13.64;65.70
43281;BME280;62175;49.416;8.690;2023-11-21T08:32:53;100138.95;;;13.45;63.94
43281;BME280;62175;49.416;8.690;2023-11-21T08:35:20;100143.91;;;13.90;65.07
43281;BME280;62175;49.416;8.690;2023-11-21T08:37:47;100147.55;;;13.69;64.60
43281;BME280;62175;49.416;8.690;2023-11-21T08:40:13;100154.17;;;13.72;63.71
43281;BME280;62175;49.416;8.690;2023-11-21T08:42:40;100154.64;;;13.58;64.80
43281;BME280;62175;49.416;8.690;2023-11-21T08:45:08;100157.50;;;13.65;64.14
43281;BME280;62175;49.416;8.690;2023-11-21T08:47:35;100159.01;;;13.62;64.98
43281;BME280;62175;49.416;8.690;2023-11-21T08:50:03;100159.40;;;13.31;64.42
43281;BME280;62175;49.416;8.690;2023-11-21T08:52:30;100158.58;;;13.58;64.84
43281;BME280;62175;49.416;8.690;2023-11-21T08:54:57;100161.22;;;13.49;64.07
43281;BME280;62175;49.416;8.690;2023-11-21T08:57:24;100162.72;;;13.68;63.83
43281;BME280;62175;49.416;8.690;2023-11-21T08:59:51;100166.15;;;13.64;63.87
43281;BME280;62175;49.416;8.690;2023-11-21T09:02:18;100167.83;;;13.42;63.86
43281;BME280;62175;49.416;8.690;2023-11-21T09:04:44;100171.33;;;13.57;66.14
43281;BME280;62175;49.416;8.690;2023-11-21T09:07:12;100173.21;;;13.54;64.13
43281;BME280;62175;49.416;8.690;2023-11-21T09:09:39;100174.90;;;13.51;64.77
43281;BME280;62175;49.416;8.690;2023-11-21T09:12:07;100176.61;;;13.59;64.90
43281;BME280;62175;49.416;8.690;2023-11-21T09:14:34;100180.23;;;13.52;64.40
43281;BME280;62175;49.416;8.690;2023-11-21T09:17:01;100183.29;;;13.54;64.57
43281;BME280;62175;49.416;8.690;2023-11-21T09:19:28;100184.53;;;13.59;64.65
43281;BME280;62175;49.416;8.690;2023-11-21T09:21:55;100184.41;;;13.77;63.21
43281;BME280;62175;49.416;8.690;2023-11-21T09:24:22;100191.10;;;13.53;64.91
43281;BME280;62175;49.416;8.690;2023-11-21T09:26:50;100196.51;;;13.54;64.95
43281;BME280;62175;49.416;8.690;2023-11-21T09:29:17;100198.95;;;13.71;64.44
43281;BME280;62175;49.416;8.690;2023-11-21T09:31:44;100202.94;;;13.73;63.79
43281;BME280;62175;49.416;8.690;2023-11-21T09:34:11;100207.25;;;13.63;65.36
43281;BME280;62175;49.416;8.690;2023-11-21T09:36:38;100209.47;;;13.63;65.69
43281;BME280;62175;49.416;8.690;2023-11-21T09:39:05;100215.66;;;13.31;66.48
43281;BME280;62175;49.416;8.690;2023-11-21T09:41:37;100216.98;;;13.77;65.21
43281;BME280;62175;49.416;8.690;2023-11-21T09:44:09;100227.41;;;13.71;65.15
43281;BME280;62175;49.416;8.690;2023-11-21T09:46:42;100229.43;;;13.50;65.11
43281;BME280;62175;49.416;8.690;2023-11-21T09:49:10;100229.84;;;13.62;65.60
43281;BME280;62175;49.416;8.690;2023-11-21T09:51:39;100233.64;;;13.03;66.40
43281;BME280;62175;49.416;8.690;2023-11-21T09:54:10;100234.02;;;13.27;65.30
43281;BME280;62175;49.416;8.690;2023-11-21T09:56:38;100233.13;;;13.46;65.46
43281;BME280;62175;49.416;8.690;2023-11-21T09:59:06;100235.19;;;13.33;64.83
43281;BME280;62175;49.416;8.690;2023-11-21T10:01:33;100236.08;;;13.55;65.28
43281;BME280;62175;49.416;8.690;2023-11-21T10:04:02;100238.45;;;13.70;65.84
43281;BME280;62175;49.416;8.690;2023-11-21T10:06:30;100241.03;;;13.57;65.18
43281;BME280;62175;49.416;8.690;2023-11-21T10:08:59;100243.56;;;13.71;65.90
43281;BME280;62175;49.416;8.690;2023-11-21T10:11:27;100247.82;;;13.52;64.68
43281;BME280;62175;49.416;8.690;2023-11-21T10:13:55;100247.16;;;12.79;65.80
43281;BME280;62175;49.416;8.690;2023-11-21T10:16:26;100250.45;;;13.45;64.91
43281;BME280;62175;49.416;8.690;2023-11-21T10:18:55;100251.86;;;13.52;64.81
43281;BME280;62175;49.416;8.690;2023-11-21T10:21:25;100246.25;;;13.62;66.07
43281;BME280;62175;49.416;8.690;2023-11-21T10:23:53;100243.64;;;13.69;64.88
43281;BME280;62175;49.416;8.690;2023-11-21T10:26:21;100243.71;;;13.43;65.12
43281;BME280;62175;49.416;8.690;2023-11-21T10:28:57;100243.90;;;13.59;64.11
43281;BME280;62175;49.416;8.690;2023-11-21T10:31:24;100243.86;;;13.65;64.57
43281;BME280;62175;49.416;8.690;2023-11-21T10:33:51;100247.02;;;13.64;64.67
43281;BME280;62175;49.416;8.690;2023-11-21T10:36:25;100246.57;;;13.56;65.20
43281;BME280;62175;49.416;8.690;2023-11-21T10:38:53;100247.09;;;13.47;65.21
43281;BME280;62175;49.416;8.690;2023-11-21T10:41:20;100247.93;;;13.57;64.39
43281;BME280;62175;49.416;8.690;2023-11-21T10:43:47;100251.28;;;13.56;66.05
43281;BME280;62175;49.416;8.690;2023-11-21T10:46:15;100249.56;;;13.20;65.73
43281;BME280;62175;49.416;8.690;2023-11-21T10:48:42;100254.17;;;13.70;65.31
43281;BME280;62175;49.416;8.690;2023-11-21T10:51:09;100256.65;;;13.61;64.99
43281;BME280;62175;49.416;8.690;2023-11-21T10:53:39;100258.67;;;13.58;64.97
43281;BME280;62175;49.416;8.690;2023-11-21T10:56:08;100265.95;;;13.81;63.91
43281;BME280;62175;49.416;8.690;2023-11-21T10:58:36;100265.71;;;13.42;64.23
43281;BME280;62175;49.416;8.690;2023-11-21T11:01:06;100269.89;;;12.42;66.07
43281;BME280;62175;49.416;8.690;2023-11-21T11:03:36;100271.31;;;13.45;65.11
43281;BME280;62175;49.416;8.690;2023-11-21T11:06:05;100274.17;;;13.44;64.71
43281;BME280;62175;49.416;8.690;2023-11-21T11:08:34;100277.18;;;13.48;64.15
43281;BME280;62175;49.416;8.690;2023-11-21T11:11:02;100277.69;;;13.50;65.11
43281;BME280;62175;49.416;8.690;2023-11-21T11:13:29;100278.43;;;13.49;64.94
43281;BME280;62175;49.416;8.690;2023-11-21T11:15:58;100281.40;;;13.88;64.52
43281;BME280;62175;49.416;8.690;2023-11-21T11:18:25;100279.75;;;13.10;65.12
43281;BME280;62175;49.416;8.690;2023-11-21T11:20:53;100280.16;;;13.03;65.87
43281;BME280;62175;49.416;8.690;2023-11-21T11:23:33;100278.96;;;13.31;65.33
43281;BME280;62175;49.416;8.690;2023-11-21T11:26:12;100280.28;;;13.51;64.88
43281;BME280;62175;49.416;8.690;2023-11-21T11:28:53;100279.49;;;13.19;64.58
43281;BME280;62175;49.416;8.690;2023-11-21T11:31:31;100282.93;;;13.28;65.04
43281;BME280;62175;49.416;8.690;2023-11-21T11:34:12;100291.24;;;12.94;63.35
43281;BME280;62175;49.416;8.690;2023-11-21T11:36:48;100289.72;;;13.36;64.77
43281;BME280;62175;49.416;8.690;2023-11-21T11:39:35;100286.73;;;13.48;64.02
43281;BME280;62175;49.416;8.690;2023-11-21T11:42:06;100290.15;;;13.64;64.02
43281;BME280;62175;49.416;8.690;2023-11-21T11:44:49;100288.46;;;13.41;64.54
43281;BME280;62175;49.416;8.690;2023-11-21T11:47:16;100286.85;;;13.54;63.76
43281;BME280;62175;49.416;8.690;2023-11-21T11:50:03;100283.24;;;13.41;63.77
43281;BME280;62175;49.416;8.690;2023-11-21T11:52:39;100280.66;;;13.48;64.58
43281;BME280;62175;49.416;8.690;2023-11-21T11:55:08;100285.17;;;13.22;65.26
43281;BME280;62175;49.416;8.690;2023-11-21T11:57:36;100285.20;;;13.56;64.58
43281;BME280;62175;49.416;8.690;2023-11-21T12:00:09;100285.28;;;13.63;65.30
43281;BME280;62175;49.416;8.690;2023-11-21T12:02:38;100286.88;;;13.72;64.04
43281;BME280;62175;49.416;8.690;2023-11-21T12:05:10;100290.63;;;13.38;63.49
43281;BME280;62175;49.416;8.690;2023-11-21T12:07:45;100291.27;;;13.71;63.82
43281;BME280;62175;49.416;8.690;2023-11-21T12:10:14;100295.88;;;13.66;63.83
43281;BME280;62175;49.416;8.690;2023-11-21T12:12:43;100302.40;;;13.84;64.55
43281;BME280;62175;49.416;8.690;2023-11-21T12:15:11;100306.08;;;13.51;64.55
43281;BME280;62175;49.416;8.690;2023-11-21T12:17:39;100305.32;;;13.65;64.58
43281;BME280;62175;49.416;8.690;2023-11-21T12:20:07;100305.93;;;13.99;63.70
43281;BME280;62175;49.416;8.690;2023-11-21T12:22:34;100301.31;;;13.81;63.88
43281;BME280;62175;49.416;8.690;2023-11-21T12:25:01;100302.30;;;13.87;64.12
43281;BME280;62175;49.416;8.690;2023-11-21T12:27:28;100296.57;;;13.87;64.48
43281;BME280;62175;49.416;8.690;2023-11-21T12:29:56;100297.35;;;13.64;64.56
43281;BME280;62175;49.416;8.690;2023-11-21T12:32:23;100301.08;;;14.22;63.18
43281;BME280;62175;49.416;8.690;2023-11-21T12:34:50;100302.82;;;14.05;64.20
43281;BME280;62175;49.416;8.690;2023-11-21T12:37:17;100305.83;;;14.00;63.78
43281;BME280;62175;49.416;8.690;2023-11-21T12:39:44;100307.81;;;14.10;63.74
43281;BME280;62175;49.416;8.690;2023-11-21T12:42:11;100309.60;;;13.58;62.00
43281;BME280;62175;49.416;8.690;2023-11-21T12:44:39;100312.03;;;13.81;61.08
43281;BME280;62175;49.416;8.690;2023-11-21T12:47:05;100317.05;;;13.66;62.32
43281;BME280;62175;49.416;8.690;2023-11-21T12:49:34;100318.28;;;14.04;60.72
43281;BME280;62175;49.416;8.690;2023-11-21T12:52:02;100325.81;;;13.93;61.83
43281;BME280;62175;49.416;8.690;2023-11-21T12:54:29;100328.08;;;14.09;63.77
43281;BME280;62175;49.416;8.690;2023-11-21T12:56:59;100329.20;;;13.96;62.62
43281;BME280;62175;49.416;8.690;2023-11-21T12:59:26;100326.93;;;13.95;61.94